KRKR/RKR METAR and TAF weather

Enter ICAO airport designator
Station Type Date Time Source
KRKR METAR 2019/12/05 23:15 UTC NOAA

KRKR 052315Z AUTO 17007KT 10SM CLR 17/05 A2987 RMK AO2


Station Type Date Time Source
KRKR Decoded METAR 2019/12/05 23:15 UTC NOAA

Poteau, Robert S Kerr Airport, OK, United States (KRKR) 35-01-18N 094-37-17W
Dec 05, 2019 - 06:15 PM EST / 2019.12.05 2315 UTC
Wind: from the S (170 degrees) at 8 MPH (7 KT):0
Visibility: 10 mile(s):0
Sky conditions: clear
Temperature: 62 F (17 C)
Dew Point: 41 F (5 C)
Relative Humidity: 45%
Pressure (altimeter): 29.87 in. Hg (1011 hPa)
ob: KRKR 052315Z AUTO 17007KT 10SM CLR 17/05 A2987 RMK AO2
cycle: 23

Station Type Date Time Source
KRKR TAF UTC NOAA

Error!

Example: see airport list